Time;durP1;ratioP1;P1;durP2;ratioP2;P2;SDS_P1;SDS_P2;PMS_P1;PMS_P2;Temp;Humidity;BMP_temperature;BMP_pressure;BME280_temperature;BME280_humidity;BME280_pressure;Samples;Min_cycle;Max_cycle;Signal;HPM_P1;HPM_P2
2021/03/03 00:00:55;;;;;;;51.00;19.40;;;;;;;1.19;100.00;97636.22;4995008;28;20213;-72
2021/03/03 00:03:21;;;;;;;52.23;19.77;;;;;;;1.15;100.00;97634.72;4995184;28;20229;-72
2021/03/03 00:05:47;;;;;;;47.73;19.40;;;;;;;1.17;100.00;97636.28;4991064;28;20575;-72
2021/03/03 00:08:14;;;;;;;43.20;17.30;;;;;;;1.14;100.00;97646.00;4992955;28;20233;-71
2021/03/03 00:10:40;;;;;;;55.57;20.23;;;;;;;1.20;100.00;97649.91;4994334;28;20666;-71
2021/03/03 00:13:06;;;;;;;46.43;20.40;;;;;;;1.27;100.00;97650.41;4991592;28;20253;-71
2021/03/03 00:15:32;;;;;;;44.87;18.50;;;;;;;1.31;100.00;97646.72;4995925;28;20214;-71
2021/03/03 00:17:58;;;;;;;39.27;17.77;;;;;;;1.30;100.00;97650.25;4989229;28;20615;-71
2021/03/03 00:20:24;;;;;;;44.67;18.57;;;;;;;1.40;100.00;97654.84;4994200;28;20213;-71
2021/03/03 00:22:50;;;;;;;49.47;19.47;;;;;;;1.36;100.00;97655.94;4994615;28;20225;-72
2021/03/03 00:25:17;;;;;;;43.43;18.80;;;;;;;1.31;100.00;97662.28;4991382;28;20210;-71
2021/03/03 00:27:42;;;;;;;49.40;20.27;;;;;;;1.31;100.00;97652.75;4989564;28;20233;-72
2021/03/03 00:30:10;;;;;;;52.80;20.53;;;;;;;1.37;100.00;97647.19;4993109;28;20309;-71
2021/03/03 00:32:36;;;;;;;44.00;18.97;;;;;;;1.39;100.00;97644.53;4993426;28;20283;-71
2021/03/03 00:35:02;;;;;;;43.83;18.87;;;;;;;1.43;100.00;97654.66;4994867;28;20210;-71
2021/03/03 00:37:28;;;;;;;48.33;20.03;;;;;;;0.89;100.00;97650.88;4991670;28;20205;-72
2021/03/03 00:39:54;;;;;;;53.07;21.17;;;;;;;0.91;100.00;97652.47;4993515;28;20206;-71
2021/03/03 00:42:20;;;;;;;49.17;20.73;;;;;;;1.12;100.00;97655.63;4994589;28;20229;-71
2021/03/03 00:44:46;;;;;;;48.03;21.10;;;;;;;1.09;100.00;97653.22;4992540;28;20203;-72
2021/03/03 00:47:12;;;;;;;50.23;20.73;;;;;;;0.95;100.00;97653.97;4992122;28;20225;-72
2021/03/03 00:49:38;;;;;;;43.87;18.73;;;;;;;0.92;100.00;97650.72;4992588;28;20206;-72
2021/03/03 00:52:05;;;;;;;48.23;19.00;;;;;;;1.05;100.00;97649.94;4990233;28;20233;-72
2021/03/03 00:54:30;;;;;;;47.57;19.27;;;;;;;1.04;100.00;97650.03;4991316;28;20209;-72
2021/03/03 00:56:56;;;;;;;44.87;19.43;;;;;;;1.09;100.00;97650.63;4992641;28;20298;-70
2021/03/03 00:59:23;;;;;;;46.07;19.53;;;;;;;1.22;100.00;97647.22;4991166;28;20211;-72
2021/03/03 01:01:49;;;;;;;40.40;18.43;;;;;;;1.11;100.00;97648.75;4991315;28;20204;-71
2021/03/03 01:04:15;;;;;;;44.97;18.13;;;;;;;1.06;100.00;97638.66;4992281;28;20284;-71
2021/03/03 01:06:41;;;;;;;45.63;19.10;;;;;;;1.00;100.00;97631.19;4990316;28;20241;-72
2021/03/03 01:09:07;;;;;;;45.70;19.53;;;;;;;0.95;100.00;97634.97;4989982;28;20252;-72
2021/03/03 01:11:33;;;;;;;49.13;19.43;;;;;;;0.97;100.00;97633.13;4992921;28;20213;-71
2021/03/03 01:13:59;;;;;;;42.07;17.87;;;;;;;0.92;100.00;97629.97;4993928;28;21063;-71
2021/03/03 01:16:26;;;;;;;39.53;17.43;;;;;;;0.84;100.00;97629.53;4991906;28;20693;-72
2021/03/03 01:18:52;;;;;;;39.73;17.80;;;;;;;0.76;100.00;97631.72;4995793;28;20210;-71
2021/03/03 01:21:18;;;;;;;41.07;18.30;;;;;;;0.72;100.00;97622.44;4994545;28;20917;-71
2021/03/03 01:23:44;;;;;;;41.00;18.87;;;;;;;0.62;100.00;97614.34;4993292;28;20230;-71
2021/03/03 01:26:10;;;;;;;46.07;19.07;;;;;;;0.53;100.00;97611.41;4994569;28;20219;-70
2021/03/03 01:28:36;;;;;;;43.67;18.67;;;;;;;0.58;100.00;97617.16;4995299;28;20787;-71
2021/03/03 01:31:02;;;;;;;49.13;20.23;;;;;;;0.64;100.00;97616.84;4991923;28;20209;-71
2021/03/03 01:33:30;;;;;;;42.93;18.87;;;;;;;0.66;100.00;97609.81;4993636;28;20238;-70
2021/03/03 01:35:57;;;;;;;43.53;17.87;;;;;;;0.76;100.00;97610.97;4992976;28;20207;-71
2021/03/03 01:38:24;;;;;;;44.03;19.13;;;;;;;0.70;100.00;97611.31;4994114;28;20684;-71
2021/03/03 01:40:51;;;;;;;41.43;18.03;;;;;;;0.77;100.00;97612.66;4992934;28;20210;-71
2021/03/03 01:43:17;;;;;;;38.37;16.77;;;;;;;0.75;100.00;97614.47;4994007;28;20240;-71
2021/03/03 01:45:43;;;;;;;47.00;18.50;;;;;;;0.68;100.00;97618.34;4994341;28;20229;-72
2021/03/03 01:48:10;;;;;;;40.67;17.40;;;;;;;0.59;100.00;97624.03;4992613;28;21118;-71
2021/03/03 01:50:39;;;;;;;53.17;20.27;;;;;;;0.64;100.00;97619.44;4993628;28;20255;-71
2021/03/03 01:53:05;;;;;;;45.20;19.63;;;;;;;0.62;100.00;97616.09;4991941;28;20989;-71
2021/03/03 01:55:31;;;;;;;50.03;19.87;;;;;;;0.72;100.00;97609.47;4992355;28;20205;-71
2021/03/03 01:57:58;;;;;;;43.83;17.40;;;;;;;0.56;100.00;97620.75;4994763;28;20209;-71
2021/03/03 02:00:24;;;;;;;43.53;18.00;;;;;;;0.53;100.00;97620.94;4994617;28;20228;-71
2021/03/03 02:02:50;;;;;;;40.47;17.63;;;;;;;0.54;100.00;97618.25;4992866;28;20278;-71
2021/03/03 02:05:17;;;;;;;49.10;19.20;;;;;;;0.58;100.00;97619.75;4990621;28;20217;-71
2021/03/03 02:07:51;;;;;;;51.77;19.73;;;;;;;0.58;100.00;97612.81;4990078;28;20236;-71
2021/03/03 02:10:23;;;;;;;44.87;19.33;;;;;;;0.66;100.00;97610.66;4993498;28;20221;-72
2021/03/03 02:12:57;;;;;;;48.87;19.63;;;;;;;0.66;100.00;97604.63;4992361;28;20234;-71
2021/03/03 02:15:23;;;;;;;41.50;18.70;;;;;;;0.66;100.00;97607.22;4989124;28;20264;-70
2021/03/03 02:17:50;;;;;;;42.20;18.57;;;;;;;0.68;100.00;97613.16;4990970;28;20199;-71
2021/03/03 02:20:17;;;;;;;47.57;19.67;;;;;;;0.71;100.00;97607.78;4993293;28;20214;-71
2021/03/03 02:22:57;;;;;;;45.33;19.37;;;;;;;0.70;100.00;97606.13;4990988;28;20251;-71
2021/03/03 02:25:26;;;;;;;45.73;19.20;;;;;;;0.76;100.00;97610.97;4991210;28;20210;-71
2021/03/03 02:27:53;;;;;;;42.90;19.17;;;;;;;0.81;100.00;97603.78;4988331;28;20295;-71
2021/03/03 02:30:21;;;;;;;44.37;18.20;;;;;;;0.75;100.00;97601.50;4989794;28;20215;-71
2021/03/03 02:32:48;;;;;;;47.47;20.07;;;;;;;0.69;100.00;97602.69;4991181;28;20629;-71
2021/03/03 02:35:15;;;;;;;44.73;19.97;;;;;;;0.80;100.00;97602.09;4990823;28;20220;-72
2021/03/03 02:37:42;;;;;;;44.97;19.77;;;;;;;0.84;100.00;97599.25;4991226;28;20233;-71
2021/03/03 02:40:10;;;;;;;44.43;19.37;;;;;;;0.81;100.00;97598.59;4992644;28;20209;-71
2021/03/03 02:42:38;;;;;;;48.43;19.27;;;;;;;0.73;100.00;97593.00;4993075;28;20222;-71
2021/03/03 02:45:08;;;;;;;43.03;18.13;;;;;;;0.74;100.00;97597.28;4992234;28;20216;-71
2021/03/03 02:47:36;;;;;;;37.60;17.17;;;;;;;0.69;100.00;97594.09;4991407;28;20244;-71
2021/03/03 02:50:02;;;;;;;37.53;17.20;;;;;;;0.63;100.00;97589.22;4991260;28;20229;-71
2021/03/03 02:52:28;;;;;;;43.27;18.60;;;;;;;0.56;100.00;97585.31;4991823;28;20227;-70
2021/03/03 02:54:54;;;;;;;45.77;18.90;;;;;;;0.39;100.00;97577.59;4991627;28;21163;-71
2021/03/03 02:57:20;;;;;;;40.80;17.83;;;;;;;0.48;100.00;97584.88;4990295;28;20214;-71
2021/03/03 02:59:51;;;;;;;43.73;17.80;;;;;;;0.55;100.00;97578.44;4991879;28;20889;-70
2021/03/03 03:02:20;;;;;;;36.87;17.00;;;;;;;0.54;100.00;97583.72;4992947;28;20294;-71
2021/03/03 03:04:48;;;;;;;39.77;17.20;;;;;;;0.51;100.00;97581.28;4994355;28;20206;-70
2021/03/03 03:07:18;;;;;;;43.70;18.87;;;;;;;0.42;100.00;97579.19;4992872;28;20222;-71
2021/03/03 03:09:45;;;;;;;45.70;19.50;;;;;;;0.38;100.00;97588.91;4991746;28;20235;-70
2021/03/03 03:12:12;;;;;;;38.20;17.57;;;;;;;0.42;100.00;97592.16;4992719;28;20236;-71
2021/03/03 03:14:40;;;;;;;43.23;18.20;;;;;;;0.45;100.00;97585.06;4995268;28;20682;-71
2021/03/03 03:17:08;;;;;;;45.13;18.30;;;;;;;0.57;100.00;97578.38;4992988;28;20207;-70
2021/03/03 03:19:36;;;;;;;41.93;17.97;;;;;;;0.41;100.00;97578.38;4994540;28;20223;-72
2021/03/03 03:22:04;;;;;;;44.60;18.70;;;;;;;0.32;100.00;97583.19;4997939;28;20229;-71
2021/03/03 03:24:31;;;;;;;42.47;17.20;;;;;;;0.34;100.00;97576.19;4996303;28;20207;-72
2021/03/03 03:26:58;;;;;;;43.57;18.67;;;;;;;0.35;100.00;97570.09;4995658;28;20259;-71
2021/03/03 03:29:25;;;;;;;49.30;19.40;;;;;;;0.42;100.00;97572.28;4997315;28;20230;-70
2021/03/03 03:31:53;;;;;;;46.20;19.77;;;;;;;0.43;100.00;97570.50;4998110;28;20219;-72
2021/03/03 03:34:20;;;;;;;47.67;20.30;;;;;;;0.25;100.00;97569.72;4998751;28;20208;-71
2021/03/03 03:36:47;;;;;;;42.17;18.27;;;;;;;0.33;100.00;97572.78;4997884;28;20211;-71
2021/03/03 03:39:14;;;;;;;47.67;18.90;;;;;;;0.40;100.00;97574.09;4997176;28;20199;-71
2021/03/03 03:41:42;;;;;;;46.57;20.33;;;;;;;0.41;100.00;97574.91;4998710;28;20575;-72
2021/03/03 03:44:09;;;;;;;52.43;20.13;;;;;;;0.47;100.00;97579.78;4994278;28;20644;-71
2021/03/03 03:46:37;;;;;;;48.90;20.57;;;;;;;0.47;100.00;97580.63;4996003;28;20206;-71
2021/03/03 03:49:04;;;;;;;46.33;18.60;;;;;;;0.48;100.00;97579.69;4997835;28;20243;-70
2021/03/03 03:51:31;;;;;;;44.87;18.97;;;;;;;0.54;100.00;97571.59;4997271;28;20203;-71
2021/03/03 03:53:58;;;;;;;40.70;18.40;;;;;;;0.64;100.00;97576.16;4997790;28;20589;-71
2021/03/03 03:56:24;;;;;;;39.00;18.37;;;;;;;0.42;100.00;97582.63;4994353;28;20226;-70
2021/03/03 03:58:50;;;;;;;40.57;18.30;;;;;;;0.26;100.00;97584.38;4997324;28;20222;-71
2021/03/03 04:01:16;;;;;;;48.47;20.27;;;;;;;0.48;100.00;97590.06;4996544;28;20214;-70
2021/03/03 04:03:42;;;;;;;45.50;19.37;;;;;;;0.55;100.00;97580.19;4996120;28;20232;-71
2021/03/03 04:06:08;;;;;;;43.53;19.17;;;;;;;0.56;100.00;97587.91;4995595;28;20207;-71
2021/03/03 04:08:34;;;;;;;44.33;18.33;;;;;;;0.48;100.00;97604.78;4990520;28;20234;-71
2021/03/03 04:11:00;;;;;;;44.80;19.30;;;;;;;0.39;100.00;97613.06;4992126;28;20273;-71
2021/03/03 04:13:26;;;;;;;45.17;19.03;;;;;;;0.33;100.00;97611.66;4997224;28;21090;-70
2021/03/03 04:15:52;;;;;;;46.17;19.20;;;;;;;0.22;100.00;97613.16;4996472;28;20206;-71
2021/03/03 04:18:18;;;;;;;43.37;19.43;;;;;;;0.28;100.00;97605.88;4995207;28;21168;-71
2021/03/03 04:20:45;;;;;;;42.00;18.73;;;;;;;0.41;100.00;97608.63;4996609;28;20291;-70
2021/03/03 04:23:11;;;;;;;39.47;18.70;;;;;;;0.45;100.00;97610.16;4997078;28;20253;-71
2021/03/03 04:25:38;;;;;;;48.77;19.60;;;;;;;0.55;100.00;97604.38;4995947;28;20274;-70
2021/03/03 04:28:05;;;;;;;55.70;20.80;;;;;;;0.50;100.00;97600.34;4995059;28;20238;-71
2021/03/03 04:30:32;;;;;;;50.40;20.93;;;;;;;0.58;100.00;97601.63;4996358;28;20205;-72
2021/03/03 04:32:58;;;;;;;42.33;20.03;;;;;;;0.60;100.00;97598.00;4995081;28;20231;-70
2021/03/03 04:35:24;;;;;;;47.90;19.03;;;;;;;0.57;100.00;97592.16;4997284;28;20210;-71
2021/03/03 04:37:50;;;;;;;47.63;18.83;;;;;;;0.62;100.00;97585.81;4996498;28;20247;-71
2021/03/03 04:40:16;;;;;;;41.10;19.37;;;;;;;0.64;100.00;97583.13;4998383;28;20206;-71
2021/03/03 04:42:43;;;;;;;44.30;18.63;;;;;;;0.58;100.00;97581.69;4996601;28;20230;-71
2021/03/03 04:45:11;;;;;;;38.60;18.50;;;;;;;0.68;100.00;97579.44;4996651;28;20733;-71
2021/03/03 04:47:37;;;;;;;44.13;18.07;;;;;;;0.54;100.00;97574.19;4995970;28;20226;-71
2021/03/03 04:50:05;;;;;;;39.43;17.77;;;;;;;0.55;100.00;97581.03;4992530;28;20264;-72
2021/03/03 04:52:31;;;;;;;47.30;18.70;;;;;;;0.53;100.00;97585.47;4979408;28;20235;-72
2021/03/03 04:54:57;;;;;;;41.20;18.43;;;;;;;0.60;100.00;97585.03;4979594;28;20551;-73
2021/03/03 04:57:23;;;;;;;45.87;19.67;;;;;;;0.54;100.00;97591.50;4979291;28;20207;-73
2021/03/03 04:59:50;;;;;;;46.40;18.93;;;;;;;0.53;100.00;97582.88;4978968;28;20755;-72
2021/03/03 05:02:16;;;;;;;39.97;18.83;;;;;;;0.58;100.00;97580.03;4979662;28;20230;-72
2021/03/03 05:04:41;;;;;;;44.23;18.93;;;;;;;0.62;100.00;97587.56;4979056;28;20611;-72
2021/03/03 05:07:07;;;;;;;42.33;19.03;;;;;;;0.53;100.00;97577.69;4978699;28;20255;-73
2021/03/03 05:09:33;;;;;;;40.53;17.83;;;;;;;0.53;100.00;97584.66;4979050;28;20450;-72
2021/03/03 05:11:59;;;;;;;39.83;17.27;;;;;;;0.51;100.00;97584.72;4979413;28;20237;-74
2021/03/03 05:14:25;;;;;;;38.37;17.23;;;;;;;0.47;100.00;97592.75;4979261;28;20222;-72
2021/03/03 05:16:52;;;;;;;47.83;19.13;;;;;;;0.42;100.00;97587.81;4979003;28;20318;-73
2021/03/03 05:19:18;;;;;;;43.67;17.87;;;;;;;0.57;100.00;97581.78;4979093;28;20195;-72
2021/03/03 05:21:44;;;;;;;39.30;18.37;;;;;;;0.55;100.00;97586.22;4978966;28;20240;-72
2021/03/03 05:24:10;;;;;;;41.23;18.77;;;;;;;0.56;100.00;97581.88;4978749;28;20210;-72
2021/03/03 05:26:36;;;;;;;44.03;19.30;;;;;;;0.58;100.00;97575.69;4978548;28;20788;-73
2021/03/03 05:29:02;;;;;;;41.77;18.03;;;;;;;0.66;100.00;97583.88;4978661;28;20262;-73
2021/03/03 05:31:28;;;;;;;40.57;17.87;;;;;;;0.65;100.00;97584.81;4986305;28;20666;-73
2021/03/03 05:33:55;;;;;;;42.33;17.83;;;;;;;0.63;100.00;97581.44;4978446;28;20234;-72
2021/03/03 05:36:21;;;;;;;41.67;17.17;;;;;;;0.64;100.00;97578.75;4982645;28;20249;-72
2021/03/03 05:38:47;;;;;;;39.90;18.03;;;;;;;0.60;100.00;97587.63;4982052;28;20604;-73
2021/03/03 05:41:14;;;;;;;36.43;16.73;;;;;;;0.55;100.00;97585.38;4978075;28;20240;-72
2021/03/03 05:43:40;;;;;;;42.00;18.37;;;;;;;0.53;100.00;97593.25;4979214;28;20226;-72
2021/03/03 05:46:07;;;;;;;45.90;18.03;;;;;;;0.60;100.00;97592.81;4979701;28;20208;-72
2021/03/03 05:48:37;;;;;;;60.93;24.03;;;;;;;0.65;100.00;97590.81;4979787;28;20415;-72
2021/03/03 05:51:06;;;;;;;45.20;19.80;;;;;;;0.71;100.00;97592.22;4978672;28;20221;-73
2021/03/03 05:53:34;;;;;;;54.10;19.20;;;;;;;0.70;100.00;97585.34;4978007;28;20229;-73
2021/03/03 05:56:01;;;;;;;45.43;20.03;;;;;;;0.66;100.00;97578.69;4977638;28;20253;-73
2021/03/03 05:58:29;;;;;;;57.23;21.17;;;;;;;0.66;100.00;97583.88;4978791;28;20689;-73
2021/03/03 06:00:56;;;;;;;54.57;22.17;;;;;;;0.71;100.00;97581.84;4984387;28;20200;-73
2021/03/03 06:03:24;;;;;;;53.40;20.53;;;;;;;0.77;100.00;97576.34;4983586;28;20253;-73
2021/03/03 06:05:50;;;;;;;48.73;20.73;;;;;;;0.85;100.00;97580.19;4977484;28;20314;-73
2021/03/03 06:08:17;;;;;;;48.13;19.40;;;;;;;0.91;100.00;97586.78;4977917;28;20237;-73
2021/03/03 06:10:44;;;;;;;47.07;19.13;;;;;;;0.93;100.00;97572.78;4986081;28;20218;-72
2021/03/03 06:13:11;;;;;;;46.20;19.30;;;;;;;0.95;100.00;97572.72;4977695;28;20231;-73
2021/03/03 06:15:37;;;;;;;39.77;17.97;;;;;;;0.89;100.00;97573.03;4978176;28;20207;-72
2021/03/03 06:18:05;;;;;;;40.60;17.43;;;;;;;0.87;100.00;97569.72;4979654;28;20979;-72
2021/03/03 06:20:36;;;;;;;44.23;16.60;;;;;;;0.85;100.00;97566.34;4978676;28;20238;-72
2021/03/03 06:23:12;;;;;;;34.50;15.90;;;;;;;0.74;100.00;97568.72;4977962;28;20227;-73
2021/03/03 06:25:39;;;;;;;35.63;16.60;;;;;;;0.67;100.00;97572.56;4977793;28;20218;-72
2021/03/03 06:28:06;;;;;;;42.70;18.43;;;;;;;0.68;100.00;97569.88;4978051;28;20304;-72
2021/03/03 06:30:32;;;;;;;46.50;17.57;;;;;;;0.49;100.00;97575.38;4977968;28;20220;-72
2021/03/03 06:33:00;;;;;;;38.03;16.87;;;;;;;0.61;100.00;97586.72;4977622;28;20230;-73
2021/03/03 06:35:38;;;;;;;37.00;16.97;;;;;;;0.72;100.00;97580.94;4977369;28;20207;-74
2021/03/03 06:38:05;;;;;;;39.77;17.20;;;;;;;0.78;100.00;97590.97;4978089;28;20692;-73
2021/03/03 06:40:32;;;;;;;36.43;17.37;;;;;;;0.66;100.00;97589.06;4979995;28;20214;-72
2021/03/03 06:43:18;;;;;;;39.90;17.40;;;;;;;0.73;100.00;97585.22;4977305;28;20219;-73
2021/03/03 06:45:44;;;;;;;44.50;17.37;;;;;;;0.72;100.00;97589.53;4978634;28;20228;-73
2021/03/03 06:48:11;;;;;;;39.67;16.83;;;;;;;0.86;100.00;97583.59;4978412;28;20641;-72
2021/03/03 06:50:39;;;;;;;35.47;16.47;;;;;;;0.92;100.00;97591.88;4979820;28;20205;-73
2021/03/03 06:53:05;;;;;;;37.33;16.13;;;;;;;1.07;100.00;97588.44;4981669;28;20235;-74
2021/03/03 06:55:45;;;;;;;37.30;15.93;;;;;;;1.14;100.00;97581.94;4988952;28;20264;-72
2021/03/03 06:58:25;;;;;;;39.13;16.33;;;;;;;1.18;100.00;97588.63;4981948;28;20678;-72
2021/03/03 07:00:51;;;;;;;34.83;16.10;;;;;;;1.27;100.00;97588.09;4983514;28;20273;-73
2021/03/03 07:03:33;;;;;;;37.30;15.10;;;;;;;1.31;100.00;97584.41;4981641;28;20238;-74
2021/03/03 07:05:59;;;;;;;42.37;16.07;;;;;;;1.39;100.00;97579.63;4981311;28;20292;-74
2021/03/03 07:08:25;;;;;;;32.97;15.60;;;;;;;1.41;100.00;97581.19;4981239;28;20276;-73
2021/03/03 07:10:51;;;;;;;39.33;16.97;;;;;;;1.46;100.00;97573.94;4981541;28;20214;-73
2021/03/03 07:13:17;;;;;;;38.03;15.97;;;;;;;1.57;100.00;97576.75;4981380;28;20785;-74
2021/03/03 07:15:44;;;;;;;40.77;16.53;;;;;;;1.62;100.00;97579.94;4980770;28;20218;-74
2021/03/03 07:18:36;;;;;;;35.33;16.77;;;;;;;1.65;100.00;97571.13;4981620;28;20206;-73
2021/03/03 07:21:02;;;;;;;36.23;16.13;;;;;;;1.65;100.00;97577.13;4981388;28;20211;-74
2021/03/03 07:23:47;;;;;;;39.20;16.47;;;;;;;1.68;100.00;97569.19;4980855;28;20227;-74
2021/03/03 07:26:15;;;;;;;39.80;15.27;;;;;;;1.60;100.00;97580.94;4980061;28;20288;-74
2021/03/03 07:28:41;;;;;;;39.10;15.83;;;;;;;1.70;100.00;97577.69;4980133;28;20887;-74
2021/03/03 07:31:09;;;;;;;36.53;15.63;;;;;;;1.87;100.00;97574.94;4979871;28;20258;-75
2021/03/03 07:33:35;;;;;;;31.70;15.03;;;;;;;2.02;100.00;97579.22;4980318;28;20227;-73
2021/03/03 07:36:04;;;;;;;38.17;15.57;;;;;;;2.14;100.00;97575.84;4980425;28;20994;-73
2021/03/03 07:38:31;;;;;;;37.40;14.57;;;;;;;1.93;100.00;97584.97;4988425;28;20206;-74
2021/03/03 07:41:09;;;;;;;30.27;14.70;;;;;;;2.07;100.00;97587.56;4980461;28;20203;-73
2021/03/03 07:43:36;;;;;;;34.73;15.87;;;;;;;2.07;100.00;97587.56;4980479;28;20234;-73
2021/03/03 07:46:06;;;;;;;43.17;17.53;;;;;;;2.15;100.00;97590.53;4980126;28;20668;-75
2021/03/03 07:48:34;;;;;;;39.30;15.97;;;;;;;2.17;100.00;97599.09;4981584;28;20234;-74
2021/03/03 07:51:01;;;;;;;34.83;14.90;;;;;;;2.17;100.00;97588.69;4981085;28;20263;-74
2021/03/03 07:53:27;;;;;;;36.17;15.97;;;;;;;2.11;100.00;97596.84;4980840;28;20319;-73
2021/03/03 07:55:58;;;;;;;37.27;15.90;;;;;;;2.18;100.00;97598.16;4980231;28;20203;-72
2021/03/03 07:58:26;;;;;;;30.90;14.30;;;;;;;2.34;100.00;97596.28;4980419;28;20727;-72
2021/03/03 08:00:53;;;;;;;36.80;15.80;;;;;;;2.39;100.00;97595.06;4981028;28;20203;-73
2021/03/03 08:03:41;;;;;;;34.23;13.87;;;;;;;2.51;100.00;97589.94;4980584;28;20227;-72
2021/03/03 08:06:29;;;;;;;29.07;13.97;;;;;;;2.63;100.00;97589.16;4983890;28;20208;-72
2021/03/03 08:09:11;;;;;;;33.47;14.33;;;;;;;2.80;100.00;97595.91;4980566;28;20328;-72
2021/03/03 08:11:38;;;;;;;29.93;13.70;;;;;;;2.92;100.00;97585.53;4980307;28;20293;-73
2021/03/03 08:14:32;;;;;;;44.57;13.87;;;;;;;3.12;100.00;97585.09;4980401;28;20221;-73
2021/03/03 08:17:00;;;;;;;34.17;13.13;;;;;;;3.21;100.00;97587.94;4982931;28;20667;-73
2021/03/03 08:20:02;;;;;;;37.53;12.63;;;;;;;3.30;100.00;97587.34;4987110;28;20965;-73
2021/03/03 08:22:53;;;;;;;34.90;13.23;;;;;;;3.44;100.00;97584.66;4989453;28;20984;-72
2021/03/03 08:25:47;;;;;;;36.33;12.60;;;;;;;3.69;100.00;97564.69;4979365;28;20207;-73
2021/03/03 08:28:29;;;;;;;45.47;12.53;;;;;;;3.89;100.00;97560.72;4980009;28;20238;-73
2021/03/03 08:31:30;;;;;;;31.37;11.57;;;;;;;3.99;100.00;97552.16;4980004;28;20262;-73
2021/03/03 08:34:00;;;;;;;23.93;12.27;;;;;;;4.03;99.99;97566.66;4979812;28;20313;-74
2021/03/03 08:36:49;;;;;;;29.97;12.03;;;;;;;4.13;100.00;97575.50;4978761;28;20218;-73
2021/03/03 08:39:40;;;;;;;36.77;13.70;;;;;;;4.17;99.61;97553.50;4988279;28;20213;-73
2021/03/03 08:42:37;;;;;;;30.53;12.90;;;;;;;4.31;97.75;97563.81;4979588;28;20223;-73
2021/03/03 08:45:14;;;;;;;30.37;11.90;;;;;;;4.45;97.64;97561.88;4966981;28;20207;-73
2021/03/03 08:48:00;;;;;;;25.13;11.90;;;;;;;4.48;97.35;97564.28;4979864;28;20211;-73
2021/03/03 08:50:38;;;;;;;30.33;12.53;;;;;;;4.68;94.78;97565.47;4981575;28;20253;-73
2021/03/03 08:53:25;;;;;;;26.37;11.73;;;;;;;4.82;94.61;97560.13;4979336;28;20231;-73
2021/03/03 08:55:52;;;;;;;28.37;13.23;;;;;;;4.84;92.92;97567.72;4979100;28;20298;-73
2021/03/03 08:58:58;;;;;;;26.57;12.17;;;;;;;4.85;93.81;97569.38;4979548;28;20640;-72
2021/03/03 09:02:01;;;;;;;25.63;11.97;;;;;;;4.86;91.73;97565.00;4978939;28;20207;-74
2021/03/03 09:04:28;;;;;;;27.57;12.90;;;;;;;4.91;92.61;97568.97;4979857;28;20213;-73
2021/03/03 09:06:56;;;;;;;30.80;12.37;;;;;;;4.99;91.51;97569.22;4982260;28;20573;-73
2021/03/03 09:09:24;;;;;;;25.00;12.63;;;;;;;5.00;92.51;97568.28;4978975;28;20226;-73
2021/03/03 09:12:01;;;;;;;28.17;12.83;;;;;;;4.82;91.74;97567.00;4986897;28;20206;-73
2021/03/03 09:14:27;;;;;;;23.47;11.67;;;;;;;4.96;91.08;97564.25;4981046;28;20284;-74
2021/03/03 09:16:57;;;;;;;29.20;12.97;;;;;;;5.10;90.33;97561.44;4977427;28;20211;-73
2021/03/03 09:19:24;;;;;;;30.40;12.23;;;;;;;5.19;92.35;97567.78;4979594;28;20206;-73
2021/03/03 09:21:50;;;;;;;29.50;11.80;;;;;;;5.26;90.73;97554.16;4978946;28;20211;-73
2021/03/03 09:24:17;;;;;;;24.53;11.87;;;;;;;5.21;92.24;97558.88;4978666;28;20252;-73
2021/03/03 09:26:44;;;;;;;28.90;14.53;;;;;;;5.38;90.23;97555.84;4985833;28;20207;-72
2021/03/03 09:29:27;;;;;;;29.97;12.87;;;;;;;5.22;90.54;97550.09;4978546;28;20262;-73
2021/03/03 09:31:53;;;;;;;35.80;13.50;;;;;;;5.40;92.56;97542.66;4978720;28;20219;-74
2021/03/03 09:34:20;;;;;;;25.63;11.67;;;;;;;5.52;89.88;97547.81;4978752;28;20207;-74
2021/03/03 09:36:57;;;;;;;27.27;11.40;;;;;;;5.47;89.36;97547.31;4977567;28;20228;-73
2021/03/03 09:39:26;;;;;;;24.83;12.30;;;;;;;5.68;90.26;97554.41;4981540;28;20242;-73
2021/03/03 09:41:58;;;;;;;28.60;11.97;;;;;;;5.81;89.37;97549.13;4986095;28;20214;-73
2021/03/03 09:44:25;;;;;;;25.03;11.83;;;;;;;5.95;88.42;97536.63;4978646;28;20313;-74
2021/03/03 09:46:52;;;;;;;29.73;13.13;;;;;;;6.01;88.91;97545.78;4977882;28;20207;-73
2021/03/03 09:49:26;;;;;;;26.50;12.37;;;;;;;5.98;88.42;97548.66;4978294;28;20309;-73
2021/03/03 09:51:53;;;;;;;22.43;12.07;;;;;;;6.01;89.81;97557.09;4978952;28;20227;-73
2021/03/03 09:54:29;;;;;;;26.80;13.03;;;;;;;6.24;88.68;97550.94;4977831;28;20697;-75
2021/03/03 09:57:02;;;;;;;25.13;12.30;;;;;;;6.20;88.65;97547.72;4977735;28;20595;-72
2021/03/03 09:59:29;;;;;;;27.00;13.03;;;;;;;6.33;88.21;97555.44;4976585;28;20214;-73
2021/03/03 10:01:55;;;;;;;31.80;13.33;;;;;;;6.35;89.67;97554.38;4977534;28;20226;-73
2021/03/03 10:04:22;;;;;;;29.57;13.50;;;;;;;6.47;88.56;97558.66;4983434;28;20207;-73
2021/03/03 10:06:48;;;;;;;26.77;12.50;;;;;;;6.61;87.92;97553.16;4977712;28;21062;-73
2021/03/03 10:09:14;;;;;;;28.30;13.33;;;;;;;6.71;87.49;97554.09;4978664;28;20231;-73
2021/03/03 10:11:42;;;;;;;24.63;12.63;;;;;;;6.76;87.62;97551.97;4977053;28;20203;-74
2021/03/03 10:14:09;;;;;;;26.60;12.63;;;;;;;6.93;87.10;97543.56;4977043;28;20211;-74
2021/03/03 10:16:35;;;;;;;24.80;12.40;;;;;;;7.04;86.74;97554.00;4977588;28;20215;-73
2021/03/03 10:19:03;;;;;;;30.50;12.70;;;;;;;7.14;85.38;97549.69;4977516;28;20262;-73
2021/03/03 10:21:29;;;;;;;24.37;12.83;;;;;;;7.19;85.81;97550.16;4977495;28;20210;-75
2021/03/03 10:23:55;;;;;;;32.47;13.43;;;;;;;7.28;85.34;97555.50;4978648;28;20227;-72
2021/03/03 10:26:40;;;;;;;26.50;13.50;;;;;;;7.39;84.53;97556.25;4977093;28;20210;-73
2021/03/03 10:29:07;;;;;;;30.43;13.57;;;;;;;7.53;83.97;97544.63;4981970;28;20399;-73
2021/03/03 10:31:34;;;;;;;28.17;14.23;;;;;;;7.60;82.91;97544.00;4982519;28;20207;-73
2021/03/03 10:34:09;;;;;;;32.33;15.93;;;;;;;7.61;81.36;97539.59;4983407;28;20211;-73
2021/03/03 10:36:40;;;;;;;31.67;14.57;;;;;;;7.61;82.10;97544.81;4982275;28;20217;-73
2021/03/03 10:39:07;;;;;;;29.97;14.27;;;;;;;7.68;82.06;97538.94;4982364;28;20211;-73
2021/03/03 10:41:33;;;;;;;33.40;14.23;;;;;;;7.84;81.66;97549.00;4981484;28;20211;-73
2021/03/03 10:44:00;;;;;;;32.13;14.73;;;;;;;7.98;81.17;97545.09;4980155;28;20203;-73
2021/03/03 10:46:26;;;;;;;29.67;14.50;;;;;;;8.03;79.96;97535.03;4980469;28;20215;-73
2021/03/03 10:48:54;;;;;;;33.57;14.37;;;;;;;8.16;79.72;97540.94;4981846;28;20222;-73
2021/03/03 10:51:34;;;;;;;33.47;14.47;;;;;;;8.26;80.53;97548.84;4981992;28;20585;-73
2021/03/03 10:54:00;;;;;;;30.97;14.23;;;;;;;8.22;79.90;97540.41;4982259;28;20562;-73
2021/03/03 10:56:27;;;;;;;35.63;14.67;;;;;;;8.21;79.63;97540.53;4980441;28;20920;-73
2021/03/03 10:58:54;;;;;;;32.53;15.40;;;;;;;8.16;80.55;97543.56;4982053;28;20195;-73
2021/03/03 11:01:20;;;;;;;30.10;15.03;;;;;;;8.27;80.64;97532.94;4981747;28;20207;-73
2021/03/03 11:03:58;;;;;;;33.60;15.23;;;;;;;8.40;81.35;97532.72;4989391;28;20565;-72
2021/03/03 11:06:28;;;;;;;34.00;16.40;;;;;;;8.56;80.70;97532.09;4980865;28;20211;-73
2021/03/03 11:08:54;;;;;;;37.63;16.67;;;;;;;8.65;78.77;97531.28;4981872;28;20254;-73
2021/03/03 11:11:20;;;;;;;34.73;16.20;;;;;;;8.68;79.68;97524.94;4981307;28;20210;-72
2021/03/03 11:13:46;;;;;;;37.20;17.07;;;;;;;8.73;80.05;97523.59;4988398;28;20274;-73
2021/03/03 11:16:12;;;;;;;33.40;15.70;;;;;;;8.79;78.48;97520.41;4981246;28;20203;-73
2021/03/03 11:18:38;;;;;;;33.23;14.83;;;;;;;8.86;78.14;97515.44;4981497;28;21181;-73
2021/03/03 11:21:05;;;;;;;32.60;15.93;;;;;;;8.98;78.39;97509.94;4981955;28;20237;-73
2021/03/03 11:23:31;;;;;;;37.17;17.73;;;;;;;9.02;78.00;97503.41;4989131;28;20261;-71
2021/03/03 11:25:57;;;;;;;37.23;16.77;;;;;;;9.06;76.00;97499.53;4980630;28;20207;-72
2021/03/03 11:28:24;;;;;;;34.63;15.77;;;;;;;8.98;76.90;97499.41;4981613;28;20277;-72